sensor_id;sensor_type;location;lat;lon;timestamp;P1;durP1;ratioP1;P2;durP2;ratioP2
73900;SDS011;62235;52.160;7.526;2023-11-21T00:01:03;13.77;;;7.50;;
73900;SDS011;62235;52.160;7.526;2023-11-21T00:03:29;11.30;;;6.75;;
73900;SDS011;62235;52.160;7.526;2023-11-21T00:05:54;15.45;;;7.40;;
73900;SDS011;62235;52.160;7.526;2023-11-21T00:08:19;12.53;;;7.77;;
73900;SDS011;62235;52.160;7.526;2023-11-21T00:10:45;13.75;;;6.88;;
73900;SDS011;62235;52.160;7.526;2023-11-21T00:13:10;9.97;;;6.37;;
73900;SDS011;62235;52.160;7.526;2023-11-21T00:15:37;13.38;;;7.82;;
73900;SDS011;62235;52.160;7.526;2023-11-21T00:18:02;12.05;;;6.90;;
73900;SDS011;62235;52.160;7.526;2023-11-21T00:20:27;13.70;;;7.33;;
73900;SDS011;62235;52.160;7.526;2023-11-21T00:22:52;12.20;;;6.90;;
73900;SDS011;62235;52.160;7.526;2023-11-21T00:25:18;11.83;;;6.67;;
73900;SDS011;62235;52.160;7.526;2023-11-21T00:27:43;10.90;;;6.90;;
73900;SDS011;62235;52.160;7.526;2023-11-21T00:30:08;13.13;;;7.53;;
73900;SDS011;62235;52.160;7.526;2023-11-21T00:32:35;11.60;;;7.20;;
73900;SDS011;62235;52.160;7.526;2023-11-21T00:35:00;14.25;;;8.57;;
73900;SDS011;62235;52.160;7.526;2023-11-21T00:37:25;12.53;;;7.70;;
73900;SDS011;62235;52.160;7.526;2023-11-21T00:39:51;11.57;;;7.37;;
73900;SDS011;62235;52.160;7.526;2023-11-21T00:42:16;11.90;;;7.43;;
73900;SDS011;62235;52.160;7.526;2023-11-21T00:44:41;12.43;;;7.57;;
73900;SDS011;62235;52.160;7.526;2023-11-21T00:47:06;11.85;;;7.30;;
73900;SDS011;62235;52.160;7.526;2023-11-21T00:49:33;13.48;;;7.93;;
73900;SDS011;62235;52.160;7.526;2023-11-21T00:51:58;12.37;;;7.93;;
73900;SDS011;62235;52.160;7.526;2023-11-21T00:54:23;13.27;;;7.93;;
73900;SDS011;62235;52.160;7.526;2023-11-21T00:56:49;14.02;;;8.10;;
73900;SDS011;62235;52.160;7.526;2023-11-21T00:59:14;15.18;;;7.72;;
73900;SDS011;62235;52.160;7.526;2023-11-21T01:01:40;16.53;;;9.27;;
73900;SDS011;62235;52.160;7.526;2023-11-21T01:04:05;14.93;;;8.65;;
73900;SDS011;62235;52.160;7.526;2023-11-21T01:06:31;12.10;;;7.68;;
73900;SDS011;62235;52.160;7.526;2023-11-21T01:08:56;11.53;;;6.83;;
73900;SDS011;62235;52.160;7.526;2023-11-21T01:11:22;9.73;;;6.35;;
73900;SDS011;62235;52.160;7.526;2023-11-21T01:13:47;10.97;;;6.83;;
73900;SDS011;62235;52.160;7.526;2023-11-21T01:16:12;13.50;;;7.18;;
73900;SDS011;62235;52.160;7.526;2023-11-21T01:18:37;12.97;;;7.03;;
73900;SDS011;62235;52.160;7.526;2023-11-21T01:21:03;11.93;;;6.87;;
73900;SDS011;62235;52.160;7.526;2023-11-21T01:23:28;11.90;;;6.70;;
73900;SDS011;62235;52.160;7.526;2023-11-21T01:25:55;13.73;;;7.03;;
73900;SDS011;62235;52.160;7.526;2023-11-21T01:28:20;12.95;;;6.70;;
73900;SDS011;62235;52.160;7.526;2023-11-21T01:30:45;9.70;;;6.43;;
73900;SDS011;62235;52.160;7.526;2023-11-21T01:33:10;10.60;;;6.90;;
73900;SDS011;62235;52.160;7.526;2023-11-21T01:35:36;11.30;;;6.87;;
73900;SDS011;62235;52.160;7.526;2023-11-21T01:38:01;14.45;;;6.93;;
73900;SDS011;62235;52.160;7.526;2023-11-21T01:40:26;12.70;;;7.33;;
73900;SDS011;62235;52.160;7.526;2023-11-21T01:42:52;11.07;;;6.67;;
73900;SDS011;62235;52.160;7.526;2023-11-21T01:45:18;11.57;;;6.90;;
73900;SDS011;62235;52.160;7.526;2023-11-21T01:47:43;9.80;;;6.17;;
73900;SDS011;62235;52.160;7.526;2023-11-21T01:50:09;12.07;;;6.90;;
73900;SDS011;62235;52.160;7.526;2023-11-21T01:52:37;12.45;;;6.72;;
73900;SDS011;62235;52.160;7.526;2023-11-21T01:55:04;11.85;;;6.80;;
73900;SDS011;62235;52.160;7.526;2023-11-21T01:57:29;11.18;;;6.32;;
73900;SDS011;62235;52.160;7.526;2023-11-21T01:59:54;12.50;;;6.60;;
73900;SDS011;62235;52.160;7.526;2023-11-21T02:02:21;11.52;;;6.68;;
73900;SDS011;62235;52.160;7.526;2023-11-21T02:04:46;11.80;;;6.80;;
73900;SDS011;62235;52.160;7.526;2023-11-21T02:07:11;12.43;;;7.50;;
73900;SDS011;62235;52.160;7.526;2023-11-21T02:09:38;12.30;;;6.90;;
73900;SDS011;62235;52.160;7.526;2023-11-21T02:12:03;10.93;;;6.40;;
73900;SDS011;62235;52.160;7.526;2023-11-21T02:14:29;18.25;;;6.93;;
73900;SDS011;62235;52.160;7.526;2023-11-21T02:16:55;14.80;;;7.40;;
73900;SDS011;62235;52.160;7.526;2023-11-21T02:19:22;12.82;;;6.95;;
73900;SDS011;62235;52.160;7.526;2023-11-21T02:21:54;15.18;;;8.02;;
73900;SDS011;62235;52.160;7.526;2023-11-21T02:24:21;14.00;;;6.95;;
73900;SDS011;62235;52.160;7.526;2023-11-21T02:26:48;12.20;;;7.32;;
73900;SDS011;62235;52.160;7.526;2023-11-21T02:29:16;13.15;;;7.50;;
73900;SDS011;62235;52.160;7.526;2023-11-21T02:31:43;11.20;;;6.68;;
73900;SDS011;62235;52.160;7.526;2023-11-21T02:34:15;15.45;;;7.10;;
73900;SDS011;62235;52.160;7.526;2023-11-21T02:36:40;14.27;;;7.32;;
73900;SDS011;62235;52.160;7.526;2023-11-21T02:39:07;16.55;;;8.48;;
73900;SDS011;62235;52.160;7.526;2023-11-21T02:41:33;17.75;;;8.25;;
73900;SDS011;62235;52.160;7.526;2023-11-21T02:43:59;17.80;;;7.88;;
73900;SDS011;62235;52.160;7.526;2023-11-21T02:46:24;15.43;;;7.93;;
73900;SDS011;62235;52.160;7.526;2023-11-21T02:48:49;19.38;;;8.52;;
73900;SDS011;62235;52.160;7.526;2023-11-21T02:51:16;19.27;;;8.90;;
73900;SDS011;62235;52.160;7.526;2023-11-21T02:53:41;20.43;;;9.23;;
73900;SDS011;62235;52.160;7.526;2023-11-21T02:56:06;21.45;;;8.90;;
73900;SDS011;62235;52.160;7.526;2023-11-21T02:58:32;22.75;;;9.45;;
73900;SDS011;62235;52.160;7.526;2023-11-21T03:00:57;19.50;;;8.70;;
73900;SDS011;62235;52.160;7.526;2023-11-21T03:03:22;23.40;;;9.70;;
73900;SDS011;62235;52.160;7.526;2023-11-21T03:05:49;21.25;;;8.77;;
73900;SDS011;62235;52.160;7.526;2023-11-21T03:08:14;18.93;;;8.80;;
73900;SDS011;62235;52.160;7.526;2023-11-21T03:10:39;22.98;;;9.70;;
73900;SDS011;62235;52.160;7.526;2023-11-21T03:13:04;21.95;;;9.23;;
73900;SDS011;62235;52.160;7.526;2023-11-21T03:15:30;20.80;;;8.67;;
73900;SDS011;62235;52.160;7.526;2023-11-21T03:17:55;22.23;;;8.97;;
73900;SDS011;62235;52.160;7.526;2023-11-21T03:20:20;17.53;;;8.27;;
73900;SDS011;62235;52.160;7.526;2023-11-21T03:22:45;23.80;;;8.82;;
73900;SDS011;62235;52.160;7.526;2023-11-21T03:25:10;19.87;;;7.93;;
73900;SDS011;62235;52.160;7.526;2023-11-21T03:27:36;16.27;;;7.75;;
73900;SDS011;62235;52.160;7.526;2023-11-21T03:30:01;20.20;;;9.37;;
73900;SDS011;62235;52.160;7.526;2023-11-21T03:32:28;21.35;;;8.60;;
73900;SDS011;62235;52.160;7.526;2023-11-21T03:34:57;20.33;;;8.70;;
73900;SDS011;62235;52.160;7.526;2023-11-21T03:37:22;18.33;;;7.78;;
73900;SDS011;62235;52.160;7.526;2023-11-21T03:39:48;19.23;;;8.37;;
73900;SDS011;62235;52.160;7.526;2023-11-21T03:42:13;18.53;;;7.83;;
73900;SDS011;62235;52.160;7.526;2023-11-21T03:44:38;23.93;;;9.63;;
73900;SDS011;62235;52.160;7.526;2023-11-21T03:47:03;26.40;;;10.27;;
73900;SDS011;62235;52.160;7.526;2023-11-21T03:49:28;22.70;;;9.57;;
73900;SDS011;62235;52.160;7.526;2023-11-21T03:51:54;27.30;;;10.18;;
73900;SDS011;62235;52.160;7.526;2023-11-21T03:54:19;22.77;;;9.70;;
73900;SDS011;62235;52.160;7.526;2023-11-21T03:56:44;21.90;;;8.90;;
73900;SDS011;62235;52.160;7.526;2023-11-21T03:59:09;22.20;;;9.50;;
73900;SDS011;62235;52.160;7.526;2023-11-21T04:01:35;19.83;;;8.57;;
73900;SDS011;62235;52.160;7.526;2023-11-21T04:04:00;20.67;;;8.45;;
73900;SDS011;62235;52.160;7.526;2023-11-21T04:06:25;22.97;;;9.70;;
73900;SDS011;62235;52.160;7.526;2023-11-21T04:08:50;20.83;;;9.13;;
73900;SDS011;62235;52.160;7.526;2023-11-21T04:11:15;20.50;;;8.90;;
73900;SDS011;62235;52.160;7.526;2023-11-21T04:13:40;23.13;;;8.87;;
73900;SDS011;62235;52.160;7.526;2023-11-21T04:16:07;21.80;;;9.45;;
73900;SDS011;62235;52.160;7.526;2023-11-21T04:18:33;20.77;;;9.30;;
73900;SDS011;62235;52.160;7.526;2023-11-21T04:20:58;20.92;;;9.07;;
73900;SDS011;62235;52.160;7.526;2023-11-21T04:23:23;19.48;;;7.90;;
73900;SDS011;62235;52.160;7.526;2023-11-21T04:25:48;23.50;;;9.53;;
73900;SDS011;62235;52.160;7.526;2023-11-21T04:28:14;24.48;;;9.85;;
73900;SDS011;62235;52.160;7.526;2023-11-21T04:30:39;23.10;;;9.23;;
73900;SDS011;62235;52.160;7.526;2023-11-21T04:33:04;23.40;;;9.00;;
73900;SDS011;62235;52.160;7.526;2023-11-21T04:35:30;23.27;;;9.52;;
73900;SDS011;62235;52.160;7.526;2023-11-21T04:37:56;19.42;;;8.63;;
73900;SDS011;62235;52.160;7.526;2023-11-21T04:40:22;21.25;;;9.43;;
73900;SDS011;62235;52.160;7.526;2023-11-21T04:42:47;21.17;;;8.80;;
73900;SDS011;62235;52.160;7.526;2023-11-21T04:45:13;22.25;;;9.85;;
73900;SDS011;62235;52.160;7.526;2023-11-21T04:47:38;22.17;;;8.77;;
73900;SDS011;62235;52.160;7.526;2023-11-21T04:50:03;23.77;;;9.70;;
73900;SDS011;62235;52.160;7.526;2023-11-21T04:52:29;22.88;;;9.35;;
73900;SDS011;62235;52.160;7.526;2023-11-21T04:54:54;21.50;;;9.23;;
73900;SDS011;62235;52.160;7.526;2023-11-21T04:57:20;22.63;;;8.88;;
73900;SDS011;62235;52.160;7.526;2023-11-21T04:59:45;23.80;;;9.88;;
73900;SDS011;62235;52.160;7.526;2023-11-21T05:02:10;21.07;;;8.50;;
73900;SDS011;62235;52.160;7.526;2023-11-21T05:04:36;19.55;;;7.97;;
73900;SDS011;62235;52.160;7.526;2023-11-21T05:07:01;23.90;;;9.30;;
73900;SDS011;62235;52.160;7.526;2023-11-21T05:09:26;22.20;;;8.73;;
73900;SDS011;62235;52.160;7.526;2023-11-21T05:11:53;22.30;;;9.15;;
73900;SDS011;62235;52.160;7.526;2023-11-21T05:14:19;20.85;;;8.90;;
73900;SDS011;62235;52.160;7.526;2023-11-21T05:16:44;22.38;;;9.30;;
73900;SDS011;62235;52.160;7.526;2023-11-21T05:19:09;25.30;;;10.00;;
73900;SDS011;62235;52.160;7.526;2023-11-21T05:21:34;21.43;;;9.30;;
73900;SDS011;62235;52.160;7.526;2023-11-21T05:24:01;26.60;;;10.10;;
73900;SDS011;62235;52.160;7.526;2023-11-21T05:26:26;27.07;;;9.87;;
73900;SDS011;62235;52.160;7.526;2023-11-21T05:28:51;23.50;;;9.30;;
73900;SDS011;62235;52.160;7.526;2023-11-21T05:31:16;23.53;;;9.73;;
73900;SDS011;62235;52.160;7.526;2023-11-21T05:33:41;24.77;;;10.27;;
73900;SDS011;62235;52.160;7.526;2023-11-21T05:36:06;25.50;;;10.90;;
73900;SDS011;62235;52.160;7.526;2023-11-21T05:38:32;26.60;;;10.48;;
73900;SDS011;62235;52.160;7.526;2023-11-21T05:40:58;24.17;;;9.27;;
73900;SDS011;62235;52.160;7.526;2023-11-21T05:43:23;25.33;;;10.15;;
73900;SDS011;62235;52.160;7.526;2023-11-21T05:45:48;20.90;;;9.47;;
73900;SDS011;62235;52.160;7.526;2023-11-21T05:48:14;25.52;;;10.60;;
73900;SDS011;62235;52.160;7.526;2023-11-21T05:50:41;26.73;;;10.90;;
73900;SDS011;62235;52.160;7.526;2023-11-21T05:53:06;25.83;;;10.03;;
73900;SDS011;62235;52.160;7.526;2023-11-21T05:55:32;53.88;;;25.73;;
73900;SDS011;62235;52.160;7.526;2023-11-21T05:57:57;116.10;;;59.13;;
73900;SDS011;62235;52.160;7.526;2023-11-21T06:00:22;60.40;;;28.85;;
73900;SDS011;62235;52.160;7.526;2023-11-21T06:02:51;30.70;;;12.80;;
73900;SDS011;62235;52.160;7.526;2023-11-21T06:05:21;27.77;;;10.95;;
73900;SDS011;62235;52.160;7.526;2023-11-21T06:07:48;25.30;;;10.82;;
73900;SDS011;62235;52.160;7.526;2023-11-21T06:10:13;26.88;;;10.10;;
73900;SDS011;62235;52.160;7.526;2023-11-21T06:12:39;24.80;;;10.77;;
73900;SDS011;62235;52.160;7.526;2023-11-21T06:15:05;21.83;;;9.93;;
73900;SDS011;62235;52.160;7.526;2023-11-21T06:17:33;23.52;;;10.05;;
73900;SDS011;62235;52.160;7.526;2023-11-21T06:20:01;27.30;;;10.05;;
73900;SDS011;62235;52.160;7.526;2023-11-21T06:22:28;26.48;;;11.90;;
73900;SDS011;62235;52.160;7.526;2023-11-21T06:24:55;25.67;;;11.77;;
73900;SDS011;62235;52.160;7.526;2023-11-21T06:27:20;24.75;;;11.02;;
73900;SDS011;62235;52.160;7.526;2023-11-21T06:29:45;22.43;;;9.93;;
73900;SDS011;62235;52.160;7.526;2023-11-21T06:32:12;25.13;;;9.90;;
73900;SDS011;62235;52.160;7.526;2023-11-21T06:34:38;23.00;;;10.13;;
73900;SDS011;62235;52.160;7.526;2023-11-21T06:37:04;28.77;;;11.70;;
73900;SDS011;62235;52.160;7.526;2023-11-21T06:39:29;31.45;;;12.80;;
73900;SDS011;62235;52.160;7.526;2023-11-21T06:41:54;28.03;;;12.73;;
73900;SDS011;62235;52.160;7.526;2023-11-21T06:44:19;27.63;;;11.50;;
73900;SDS011;62235;52.160;7.526;2023-11-21T06:46:44;28.87;;;11.73;;
73900;SDS011;62235;52.160;7.526;2023-11-21T06:49:10;25.27;;;10.00;;
73900;SDS011;62235;52.160;7.526;2023-11-21T06:51:36;24.23;;;10.52;;
73900;SDS011;62235;52.160;7.526;2023-11-21T06:54:01;30.07;;;12.90;;
73900;SDS011;62235;52.160;7.526;2023-11-21T06:56:26;35.73;;;13.83;;
73900;SDS011;62235;52.160;7.526;2023-11-21T06:58:51;29.45;;;11.75;;
73900;SDS011;62235;52.160;7.526;2023-11-21T07:01:18;27.00;;;10.73;;
73900;SDS011;62235;52.160;7.526;2023-11-21T07:03:44;27.13;;;11.52;;
73900;SDS011;62235;52.160;7.526;2023-11-21T07:06:10;28.42;;;11.10;;
73900;SDS011;62235;52.160;7.526;2023-11-21T07:08:35;26.77;;;11.47;;
73900;SDS011;62235;52.160;7.526;2023-11-21T07:11:00;26.17;;;11.52;;
73900;SDS011;62235;52.160;7.526;2023-11-21T07:13:26;27.63;;;11.67;;
73900;SDS011;62235;52.160;7.526;2023-11-21T07:15:51;27.30;;;11.50;;
73900;SDS011;62235;52.160;7.526;2023-11-21T07:18:17;26.10;;;10.98;;
73900;SDS011;62235;52.160;7.526;2023-11-21T07:20:42;22.85;;;9.73;;
73900;SDS011;62235;52.160;7.526;2023-11-21T07:23:07;24.70;;;10.10;;
73900;SDS011;62235;52.160;7.526;2023-11-21T07:25:33;33.05;;;12.52;;
73900;SDS011;62235;52.160;7.526;2023-11-21T07:27:59;31.05;;;13.45;;
73900;SDS011;62235;52.160;7.526;2023-11-21T07:30:24;28.33;;;12.32;;
73900;SDS011;62235;52.160;7.526;2023-11-21T07:32:49;31.73;;;12.90;;
73900;SDS011;62235;52.160;7.526;2023-11-21T07:35:14;30.13;;;11.90;;
73900;SDS011;62235;52.160;7.526;2023-11-21T07:37:39;28.30;;;11.43;;
73900;SDS011;62235;52.160;7.526;2023-11-21T07:40:05;28.90;;;11.40;;
73900;SDS011;62235;52.160;7.526;2023-11-21T07:42:30;29.13;;;11.90;;
73900;SDS011;62235;52.160;7.526;2023-11-21T07:44:55;25.53;;;11.27;;
73900;SDS011;62235;52.160;7.526;2023-11-21T07:47:21;26.95;;;11.50;;
73900;SDS011;62235;52.160;7.526;2023-11-21T07:49:46;27.27;;;11.37;;
73900;SDS011;62235;52.160;7.526;2023-11-21T07:52:12;27.88;;;11.10;;
73900;SDS011;62235;52.160;7.526;2023-11-21T07:54:38;24.75;;;10.52;;
73900;SDS011;62235;52.160;7.526;2023-11-21T07:57:03;23.15;;;10.18;;
73900;SDS011;62235;52.160;7.526;2023-11-21T07:59:29;26.75;;;10.95;;
73900;SDS011;62235;52.160;7.526;2023-11-21T08:01:54;22.90;;;10.73;;
73900;SDS011;62235;52.160;7.526;2023-11-21T08:04:19;22.67;;;10.60;;
73900;SDS011;62235;52.160;7.526;2023-11-21T08:06:45;23.52;;;10.63;;
73900;SDS011;62235;52.160;7.526;2023-11-21T08:09:10;22.00;;;9.65;;
73900;SDS011;62235;52.160;7.526;2023-11-21T08:11:37;20.88;;;9.57;;
73900;SDS011;62235;52.160;7.526;2023-11-21T08:14:03;21.33;;;9.43;;
73900;SDS011;62235;52.160;7.526;2023-11-21T08:16:29;17.38;;;9.38;;
73900;SDS011;62235;52.160;7.526;2023-11-21T08:18:55;16.73;;;9.20;;
73900;SDS011;62235;52.160;7.526;2023-11-21T08:21:20;18.90;;;8.63;;
73900;SDS011;62235;52.160;7.526;2023-11-21T08:23:45;21.02;;;10.50;;
73900;SDS011;62235;52.160;7.526;2023-11-21T08:26:10;22.43;;;11.03;;
73900;SDS011;62235;52.160;7.526;2023-11-21T08:28:35;17.93;;;9.63;;
73900;SDS011;62235;52.160;7.526;2023-11-21T08:31:01;21.07;;;10.87;;
73900;SDS011;62235;52.160;7.526;2023-11-21T08:33:26;19.42;;;9.95;;
73900;SDS011;62235;52.160;7.526;2023-11-21T08:35:51;20.30;;;9.50;;
73900;SDS011;62235;52.160;7.526;2023-11-21T08:38:16;22.53;;;10.10;;
73900;SDS011;62235;52.160;7.526;2023-11-21T08:40:42;21.10;;;10.30;;
73900;SDS011;62235;52.160;7.526;2023-11-21T08:43:07;19.98;;;9.95;;
73900;SDS011;62235;52.160;7.526;2023-11-21T08:45:33;18.45;;;9.55;;
73900;SDS011;62235;52.160;7.526;2023-11-21T08:47:59;20.90;;;10.50;;
73900;SDS011;62235;52.160;7.526;2023-11-21T08:50:25;21.33;;;10.38;;
73900;SDS011;62235;52.160;7.526;2023-11-21T08:52:50;19.30;;;10.30;;
73900;SDS011;62235;52.160;7.526;2023-11-21T08:55:16;18.90;;;9.13;;
73900;SDS011;62235;52.160;7.526;2023-11-21T08:57:43;21.60;;;10.13;;
73900;SDS011;62235;52.160;7.526;2023-11-21T09:00:08;21.23;;;10.63;;
73900;SDS011;62235;52.160;7.526;2023-11-21T09:02:40;23.15;;;10.85;;
73900;SDS011;62235;52.160;7.526;2023-11-21T09:05:07;18.95;;;9.73;;
73900;SDS011;62235;52.160;7.526;2023-11-21T09:07:32;18.85;;;9.60;;
73900;SDS011;62235;52.160;7.526;2023-11-21T09:09:57;16.88;;;9.13;;
73900;SDS011;62235;52.160;7.526;2023-11-21T09:12:23;18.00;;;9.77;;
73900;SDS011;62235;52.160;7.526;2023-11-21T09:14:49;16.67;;;8.93;;
73900;SDS011;62235;52.160;7.526;2023-11-21T09:17:15;20.88;;;10.93;;
73900;SDS011;62235;52.160;7.526;2023-11-21T09:19:41;19.60;;;10.23;;
73900;SDS011;62235;52.160;7.526;2023-11-21T09:22:06;19.23;;;9.47;;
73900;SDS011;62235;52.160;7.526;2023-11-21T09:24:32;22.88;;;10.27;;
73900;SDS011;62235;52.160;7.526;2023-11-21T09:26:57;21.42;;;10.13;;
73900;SDS011;62235;52.160;7.526;2023-11-21T09:29:23;17.48;;;9.02;;
73900;SDS011;62235;52.160;7.526;2023-11-21T09:31:48;14.60;;;8.03;;
73900;SDS011;62235;52.160;7.526;2023-11-21T09:34:14;17.92;;;8.70;;
73900;SDS011;62235;52.160;7.526;2023-11-21T09:36:40;19.58;;;9.23;;
73900;SDS011;62235;52.160;7.526;2023-11-21T09:39:06;17.98;;;8.57;;
73900;SDS011;62235;52.160;7.526;2023-11-21T09:41:36;22.50;;;10.32;;
73900;SDS011;62235;52.160;7.526;2023-11-21T09:44:04;20.10;;;10.23;;
73900;SDS011;62235;52.160;7.526;2023-11-21T09:46:36;22.60;;;10.50;;
73900;SDS011;62235;52.160;7.526;2023-11-21T09:49:04;21.80;;;10.27;;
73900;SDS011;62235;52.160;7.526;2023-11-21T09:51:30;18.48;;;8.27;;
73900;SDS011;62235;52.160;7.526;2023-11-21T09:53:58;15.63;;;8.60;;
73900;SDS011;62235;52.160;7.526;2023-11-21T09:56:24;20.63;;;9.60;;
73900;SDS011;62235;52.160;7.526;2023-11-21T09:58:52;21.92;;;9.85;;
73900;SDS011;62235;52.160;7.526;2023-11-21T10:01:18;20.08;;;9.18;;
73900;SDS011;62235;52.160;7.526;2023-11-21T10:03:44;21.08;;;9.48;;
73900;SDS011;62235;52.160;7.526;2023-11-21T10:06:09;19.08;;;9.10;;
73900;SDS011;62235;52.160;7.526;2023-11-21T10:08:35;19.10;;;8.90;;
73900;SDS011;62235;52.160;7.526;2023-11-21T10:11:01;20.85;;;9.80;;
73900;SDS011;62235;52.160;7.526;2023-11-21T10:13:27;20.45;;;10.05;;
73900;SDS011;62235;52.160;7.526;2023-11-21T10:15:55;19.60;;;9.82;;
73900;SDS011;62235;52.160;7.526;2023-11-21T10:18:20;21.50;;;9.90;;
73900;SDS011;62235;52.160;7.526;2023-11-21T10:20:48;22.27;;;10.27;;
73900;SDS011;62235;52.160;7.526;2023-11-21T10:23:17;19.13;;;9.27;;
73900;SDS011;62235;52.160;7.526;2023-11-21T10:25:42;22.27;;;10.18;;
73900;SDS011;62235;52.160;7.526;2023-11-21T10:28:08;24.65;;;10.70;;
73900;SDS011;62235;52.160;7.526;2023-11-21T10:30:35;23.70;;;10.35;;
73900;SDS011;62235;52.160;7.526;2023-11-21T10:33:02;24.27;;;10.25;;
73900;SDS011;62235;52.160;7.526;2023-11-21T10:38:11;23.63;;;10.15;;
73900;SDS011;62235;52.160;7.526;2023-11-21T10:40:38;24.02;;;10.07;;
73900;SDS011;62235;52.160;7.526;2023-11-21T10:43:07;16.25;;;8.32;;
73900;SDS011;62235;52.160;7.526;2023-11-21T10:45:39;18.10;;;8.27;;
73900;SDS011;62235;52.160;7.526;2023-11-21T10:48:05;15.98;;;7.72;;
73900;SDS011;62235;52.160;7.526;2023-11-21T10:50:32;13.15;;;6.93;;
73900;SDS011;62235;52.160;7.526;2023-11-21T10:52:57;15.45;;;7.30;;
73900;SDS011;62235;52.160;7.526;2023-11-21T10:55:22;13.50;;;7.10;;
73900;SDS011;62235;52.160;7.526;2023-11-21T10:57:51;12.27;;;6.07;;
73900;SDS011;62235;52.160;7.526;2023-11-21T11:00:17;14.00;;;6.82;;
73900;SDS011;62235;52.160;7.526;2023-11-21T11:02:45;12.82;;;6.78;;
73900;SDS011;62235;52.160;7.526;2023-11-21T11:05:12;12.52;;;6.30;;
73900;SDS011;62235;52.160;7.526;2023-11-21T11:07:38;11.77;;;5.95;;
73900;SDS011;62235;52.160;7.526;2023-11-21T11:10:04;13.25;;;6.55;;
73900;SDS011;62235;52.160;7.526;2023-11-21T11:12:33;12.35;;;6.30;;
73900;SDS011;62235;52.160;7.526;2023-11-21T11:14:58;13.15;;;6.60;;
73900;SDS011;62235;52.160;7.526;2023-11-21T11:17:23;10.93;;;6.20;;
73900;SDS011;62235;52.160;7.526;2023-11-21T11:19:48;10.03;;;5.40;;
73900;SDS011;62235;52.160;7.526;2023-11-21T11:25:02;12.85;;;6.35;;
73900;SDS011;62235;52.160;7.526;2023-11-21T11:27:37;12.45;;;5.95;;
73900;SDS011;62235;52.160;7.526;2023-11-21T11:32:36;11.40;;;6.00;;
73900;SDS011;62235;52.160;7.526;2023-11-21T11:37:41;11.60;;;5.88;;
73900;SDS011;62235;52.160;7.526;2023-11-21T11:40:07;10.90;;;5.80;;
73900;SDS011;62235;52.160;7.526;2023-11-21T11:42:32;8.45;;;4.53;;
73900;SDS011;62235;52.160;7.526;2023-11-21T11:44:57;7.93;;;4.67;;
73900;SDS011;62235;52.160;7.526;2023-11-21T11:47:27;8.37;;;4.90;;
73900;SDS011;62235;52.160;7.526;2023-11-21T11:50:11;9.38;;;5.20;;
73900;SDS011;62235;52.160;7.526;2023-11-21T11:55:11;8.88;;;5.22;;
73900;SDS011;62235;52.160;7.526;2023-11-21T11:57:36;9.32;;;5.05;;
73900;SDS011;62235;52.160;7.526;2023-11-21T12:02:34;9.48;;;4.95;;
73900;SDS011;62235;52.160;7.526;2023-11-21T12:04:59;8.32;;;4.95;;
73900;SDS011;62235;52.160;7.526;2023-11-21T12:07:25;9.90;;;5.70;;
73900;SDS011;62235;52.160;7.526;2023-11-21T12:10:03;8.20;;;5.10;;
73900;SDS011;62235;52.160;7.526;2023-11-21T12:12:30;7.70;;;5.15;;
73900;SDS011;62235;52.160;7.526;2023-11-21T12:14:57;8.52;;;5.72;;
73900;SDS011;62235;52.160;7.526;2023-11-21T12:17:23;9.07;;;5.60;;
73900;SDS011;62235;52.160;7.526;2023-11-21T12:19:49;11.50;;;6.83;;
73900;SDS011;62235;52.160;7.526;2023-11-21T12:22:16;9.95;;;6.20;;
73900;SDS011;62235;52.160;7.526;2023-11-21T12:24:41;12.43;;;6.10;;
73900;SDS011;62235;52.160;7.526;2023-11-21T12:27:06;8.13;;;5.03;;
73900;SDS011;62235;52.160;7.526;2023-11-21T12:29:32;9.40;;;5.45;;
73900;SDS011;62235;52.160;7.526;2023-11-21T12:31:58;9.57;;;5.60;;
73900;SDS011;62235;52.160;7.526;2023-11-21T12:34:23;8.53;;;5.67;;
73900;SDS011;62235;52.160;7.526;2023-11-21T12:36:48;9.50;;;5.80;;
73900;SDS011;62235;52.160;7.526;2023-11-21T12:39:14;10.25;;;5.97;;
73900;SDS011;62235;52.160;7.526;2023-11-21T12:41:39;14.90;;;7.67;;
73900;SDS011;62235;52.160;7.526;2023-11-21T12:44:09;14.60;;;8.23;;
73900;SDS011;62235;52.160;7.526;2023-11-21T12:46:34;17.35;;;8.65;;
73900;SDS011;62235;52.160;7.526;2023-11-21T12:49:00;16.20;;;8.25;;
73900;SDS011;62235;52.160;7.526;2023-11-21T12:51:25;12.47;;;7.90;;
73900;SDS011;62235;52.160;7.526;2023-11-21T12:53:50;13.17;;;7.33;;
73900;SDS011;62235;52.160;7.526;2023-11-21T12:56:17;11.20;;;6.32;;
73900;SDS011;62235;52.160;7.526;2023-11-21T12:58:44;12.17;;;6.50;;
73900;SDS011;62235;52.160;7.526;2023-11-21T13:01:12;10.68;;;6.82;;
73900;SDS011;62235;52.160;7.526;2023-11-21T13:03:37;11.18;;;7.40;;
73900;SDS011;62235;52.160;7.526;2023-11-21T13:06:03;13.00;;;7.30;;
73900;SDS011;62235;52.160;7.526;2023-11-21T13:08:30;12.02;;;7.47;;
73900;SDS011;62235;52.160;7.526;2023-11-21T13:10:56;13.57;;;8.05;;
73900;SDS011;62235;52.160;7.526;2023-11-21T13:13:21;31.85;;;19.65;;
73900;SDS011;62235;52.160;7.526;2023-11-21T13:15:47;18.25;;;10.82;;
73900;SDS011;62235;52.160;7.526;2023-11-21T13:18:13;51.30;;;28.40;;
73900;SDS011;62235;52.160;7.526;2023-11-21T13:20:38;20.52;;;10.02;;
73900;SDS011;62235;52.160;7.526;2023-11-21T13:23:07;12.60;;;7.40;;
73900;SDS011;62235;52.160;7.526;2023-11-21T13:27:58;11.55;;;7.10;;
73900;SDS011;62235;52.160;7.526;2023-11-21T13:30:24;8.27;;;5.65;;
73900;SDS011;62235;52.160;7.526;2023-11-21T13:35:18;8.73;;;5.70;;
73900;SDS011;62235;52.160;7.526;2023-11-21T13:37:49;9.63;;;6.03;;
73900;SDS011;62235;52.160;7.526;2023-11-21T13:40:16;9.73;;;5.80;;
73900;SDS011;62235;52.160;7.526;2023-11-21T13:42:47;8.55;;;5.20;;
73900;SDS011;62235;52.160;7.526;2023-11-21T13:45:12;9.57;;;5.90;;
73900;SDS011;62235;52.160;7.526;2023-11-21T13:47:38;8.23;;;5.33;;
73900;SDS011;62235;52.160;7.526;2023-11-21T13:50:03;8.63;;;5.63;;
73900;SDS011;62235;52.160;7.526;2023-11-21T13:52:28;8.30;;;5.25;;
73900;SDS011;62235;52.160;7.526;2023-11-21T13:54:58;8.43;;;5.40;;
73900;SDS011;62235;52.160;7.526;2023-11-21T13:57:23;9.70;;;6.28;;
73900;SDS011;62235;52.160;7.526;2023-11-21T13:59:49;9.70;;;5.53;;
73900;SDS011;62235;52.160;7.526;2023-11-21T14:02:14;8.30;;;5.17;;
73900;SDS011;62235;52.160;7.526;2023-11-21T14:07:23;8.63;;;5.10;;
73900;SDS011;62235;52.160;7.526;2023-11-21T14:10:00;8.90;;;5.13;;
73900;SDS011;62235;52.160;7.526;2023-11-21T14:12:26;8.40;;;5.10;;
73900;SDS011;62235;52.160;7.526;2023-11-21T14:14:51;7.67;;;5.10;;
73900;SDS011;62235;52.160;7.526;2023-11-21T14:17:16;18.93;;;11.27;;
73900;SDS011;62235;52.160;7.526;2023-11-21T14:19:41;19.07;;;11.63;;
73900;SDS011;62235;52.160;7.526;2023-11-21T14:22:09;25.73;;;17.17;;
73900;SDS011;62235;52.160;7.526;2023-11-21T14:24:34;9.13;;;5.63;;
73900;SDS011;62235;52.160;7.526;2023-11-21T14:27:00;8.73;;;5.27;;
73900;SDS011;62235;52.160;7.526;2023-11-21T14:29:25;8.90;;;4.90;;
73900;SDS011;62235;52.160;7.526;2023-11-21T14:31:52;7.90;;;4.90;;
73900;SDS011;62235;52.160;7.526;2023-11-21T14:34:21;9.70;;;5.50;;
73900;SDS011;62235;52.160;7.526;2023-11-21T14:36:46;9.27;;;5.03;;
73900;SDS011;62235;52.160;7.526;2023-11-21T14:39:11;9.30;;;5.40;;
73900;SDS011;62235;52.160;7.526;2023-11-21T14:41:48;9.95;;;6.28;;
73900;SDS011;62235;52.160;7.526;2023-11-21T14:44:13;8.45;;;5.15;;
73900;SDS011;62235;52.160;7.526;2023-11-21T14:46:40;8.30;;;4.88;;
73900;SDS011;62235;52.160;7.526;2023-11-21T14:49:10;9.07;;;5.32;;